Time;durP1;ratioP1;P1;durP2;ratioP2;P2;SDS_P1;SDS_P2;PMS_P1;PMS_P2;Temp;Humidity;BMP_temperature;BMP_pressure;BME280_temperature;BME280_humidity;BME280_pressure;Samples;Min_cycle;Max_cycle;Signal;HPM_P1;HPM_P2
2023/08/26 06:04:16;;;;;;;5.13;1.90;;;;;;;;;;12845490;22;1559675;-84
2023/08/26 06:09:17;;;;;;;2.75;1.65;;;;;;;;;;12904839;23;20436;-83
2023/08/26 06:14:18;;;;;;;3.75;1.60;;;;;;;;;;12900890;23;20436;-85
2023/08/26 06:19:19;;;;;;;3.55;1.55;;;;;;;;;;12890808;23;20038;-83
2023/08/26 06:24:20;;;;;;;15.13;3.00;;;;;;;;;;12889173;23;20004;-84
2023/08/26 06:29:25;;;;;;;4.78;1.83;;;;;;;;;;12892776;23;19996;-83
2023/08/26 06:34:26;;;;;;;5.13;1.83;;;;;;;;;;12893470;23;20001;-84
2023/08/26 06:39:27;;;;;;;3.90;1.70;;;;;;;;;;12891932;23;20091;-84
2023/08/26 06:44:28;;;;;;;6.03;1.80;;;;;;;;;;12919933;23;20005;-83
2023/08/26 06:49:29;;;;;;;4.72;1.85;;;;;;;;;;12903379;23;20084;-84
2023/08/26 06:54:31;;;;;;;4.20;1.73;;;;;;;;;;12888750;23;20027;-84
2023/08/26 06:59:32;;;;;;;4.90;1.77;;;;;;;;;;12876239;23;20005;-84
2023/08/26 07:04:33;;;;;;;5.82;1.60;;;;;;;;;;12875502;23;20023;-85
2023/08/26 07:09:34;;;;;;;4.45;1.77;;;;;;;;;;12874391;23;20008;-85
2023/08/26 07:14:35;;;;;;;2.90;1.60;;;;;;;;;;12874748;23;20092;-85
2023/08/26 07:19:36;;;;;;;4.38;1.90;;;;;;;;;;12872890;23;20009;-85
2023/08/26 07:24:37;;;;;;;1.98;1.23;;;;;;;;;;12888134;23;19993;-85
2023/08/26 07:29:38;;;;;;;2.70;1.35;;;;;;;;;;12878760;23;20461;-86
2023/08/26 07:34:39;;;;;;;2.42;1.50;;;;;;;;;;12872974;23;20459;-86
2023/08/26 07:39:40;;;;;;;2.00;1.25;;;;;;;;;;12894438;23;20027;-86
2023/08/26 07:44:41;;;;;;;4.20;1.77;;;;;;;;;;12880804;23;20032;-86
2023/08/26 07:49:42;;;;;;;1.73;1.20;;;;;;;;;;12867527;23;20040;-86
2023/08/26 07:54:44;;;;;;;3.28;1.23;;;;;;;;;;12867724;23;20020;-85
2023/08/26 07:59:45;;;;;;;3.10;1.20;;;;;;;;;;12868646;23;20409;-85
2023/08/26 08:04:46;;;;;;;3.83;1.45;;;;;;;;;;12867129;23;20087;-86
2023/08/26 08:09:47;;;;;;;3.35;1.42;;;;;;;;;;12867024;23;20009;-85
2023/08/26 08:14:48;;;;;;;3.80;1.40;;;;;;;;;;12869040;23;20016;-86
2023/08/26 08:19:49;;;;;;;4.10;1.73;;;;;;;;;;12868053;23;20004;-86
2023/08/26 08:24:50;;;;;;;3.92;1.60;;;;;;;;;;12873845;23;20015;-87
2023/08/26 08:29:51;;;;;;;4.13;1.50;;;;;;;;;;12882268;23;20365;-86
2023/08/26 08:34:53;;;;;;;2.70;1.45;;;;;;;;;;12868350;23;20083;-84
2023/08/26 08:39:54;;;;;;;3.13;1.95;;;;;;;;;;12870016;23;20031;-85
2023/08/26 08:44:55;;;;;;;3.60;1.52;;;;;;;;;;12865541;23;20012;-84
2023/08/26 08:49:57;;;;;;;5.03;1.70;;;;;;;;;;12864144;23;20040;-84
2023/08/26 08:54:58;;;;;;;5.80;1.90;;;;;;;;;;12866880;23;20031;-85
2023/08/26 09:00:00;;;;;;;4.35;1.83;;;;;;;;;;12870616;23;20000;-85
2023/08/26 09:05:02;;;;;;;7.68;2.05;;;;;;;;;;12870033;23;20016;-84
2023/08/26 09:10:05;;;;;;;3.85;1.63;;;;;;;;;;12872283;23;20009;-84
2023/08/26 09:15:07;;;;;;;3.80;1.58;;;;;;;;;;12868676;23;20004;-84
2023/08/26 09:20:08;;;;;;;4.47;1.52;;;;;;;;;;12868057;23;20070;-85
2023/08/26 09:25:09;;;;;;;2.83;1.15;;;;;;;;;;12872105;23;20004;-83
2023/08/26 09:30:10;;;;;;;3.42;1.75;;;;;;;;;;12876813;23;20015;-83
2023/08/26 09:35:13;;;;;;;4.75;1.85;;;;;;;;;;12868261;23;20028;-82
2023/08/26 09:40:15;;;;;;;2.67;1.45;;;;;;;;;;12867175;23;20000;-83
2023/08/26 09:45:19;;;;;;;3.88;1.75;;;;;;;;;;12868563;23;20008;-85
2023/08/26 09:50:31;;;;;;;6.10;1.80;;;;;;;;;;12867826;23;20029;-84
2023/08/26 09:55:32;;;;;;;5.03;1.70;;;;;;;;;;12869496;23;20012;-83
2023/08/26 10:00:33;;;;;;;3.60;2.08;;;;;;;;;;12871187;23;20057;-83
2023/08/26 10:05:37;;;;;;;3.65;1.70;;;;;;;;;;12871147;23;20393;-83
2023/08/26 10:10:52;;;;;;;2.58;1.60;;;;;;;;;;12868669;23;20409;-82
2023/08/26 10:15:55;;;;;;;3.13;1.73;;;;;;;;;;12870234;23;20000;-83
2023/08/26 10:20:57;;;;;;;2.42;1.52;;;;;;;;;;12868197;23;20001;-83
2023/08/26 10:25:59;;;;;;;3.28;1.60;;;;;;;;;;12874241;23;20009;-83
2023/08/26 10:31:00;;;;;;;3.33;1.70;;;;;;;;;;12873555;23;20433;-82
2023/08/26 10:36:13;;;;;;;2.97;1.50;;;;;;;;;;12870797;23;20096;-83
2023/08/26 10:41:14;;;;;;;3.65;2.08;;;;;;;;;;12871657;23;20000;-82
2023/08/26 10:46:15;;;;;;;4.53;1.95;;;;;;;;;;12872250;23;20004;-83
2023/08/26 10:51:16;;;;;;;2.50;1.55;;;;;;;;;;12871030;23;20009;-83
2023/08/26 10:56:21;;;;;;;4.43;1.95;;;;;;;;;;12872184;23;20108;-83
2023/08/26 11:01:22;;;;;;;2.80;1.35;;;;;;;;;;12885097;23;20016;-82
2023/08/26 11:06:25;;;;;;;3.10;1.30;;;;;;;;;;12896778;23;20005;-82
2023/08/26 11:11:29;;;;;;;1.75;0.90;;;;;;;;;;12872828;23;20452;-83
2023/08/26 11:16:30;;;;;;;2.28;1.40;;;;;;;;;;12870626;23;20012;-83
2023/08/26 11:21:31;;;;;;;2.90;1.10;;;;;;;;;;12873117;23;20004;-83
2023/08/26 11:26:32;;;;;;;1.65;1.00;;;;;;;;;;12888518;23;20012;-82
2023/08/26 11:31:33;;;;;;;3.75;1.20;;;;;;;;;;12874578;23;20001;-82
2023/08/26 11:36:35;;;;;;;2.85;1.15;;;;;;;;;;12868552;23;20004;-84
2023/08/26 11:41:36;;;;;;;2.97;1.20;;;;;;;;;;12869877;23;20000;-82
2023/08/26 11:46:37;;;;;;;2.63;1.20;;;;;;;;;;12871194;23;20095;-82
2023/08/26 11:51:41;;;;;;;1.95;1.27;;;;;;;;;;12870157;23;20040;-83
2023/08/26 11:56:44;;;;;;;2.42;1.00;;;;;;;;;;12871232;23;20008;-83
2023/08/26 12:01:46;;;;;;;1.60;0.98;;;;;;;;;;12872066;23;20378;-82
2023/08/26 12:06:47;;;;;;;1.75;1.20;;;;;;;;;;12873108;23;20031;-83
2023/08/26 12:11:48;;;;;;;1.85;1.00;;;;;;;;;;12871386;23;20036;-83
2023/08/26 12:16:55;;;;;;;2.45;1.23;;;;;;;;;;12867892;23;20047;-85
2023/08/26 12:22:03;;;;;;;1.88;1.30;;;;;;;;;;12867500;23;20008;-85
2023/08/26 12:27:08;;;;;;;2.45;1.02;;;;;;;;;;12875422;23;20063;-85
2023/08/26 12:32:11;;;;;;;1.60;0.98;;;;;;;;;;12867109;23;19997;-84
2023/08/26 12:37:47;;;;;;;2.47;1.35;;;;;;;;;;12866682;23;20005;-84
2023/08/26 12:48:38;;;;;;;2.28;1.15;;;;;;;;;;12868039;23;20008;-84
2023/08/26 12:53:49;;;;;;;2.58;1.48;;;;;;;;;;12863263;23;20001;-84
2023/08/26 12:58:56;;;;;;;2.55;1.23;;;;;;;;;;12864895;23;20004;-84
2023/08/26 13:15:41;;;;;;;2.50;1.63;;;;;;;;;;12872735;23;20314;-84
2023/08/26 13:27:14;;;;;;;2.00;1.17;;;;;;;;;;12802426;23;20095;-84
2023/08/26 13:55:23;;;;;;;1.35;0.88;;;;;;;;;;12613674;23;20006;-86
2023/08/26 14:00:51;;;;;;;1.98;0.98;;;;;;;;;;12591371;23;20033;-87
2023/08/26 14:05:54;;;;;;;2.42;1.23;;;;;;;;;;12591828;23;20506;-85
2023/08/26 14:10:55;;;;;;;2.40;1.10;;;;;;;;;;12688441;23;20035;-87
2023/08/26 14:15:56;;;;;;;1.70;1.00;;;;;;;;;;12868205;23;20009;-87
2023/08/26 14:20:57;;;;;;;1.55;0.93;;;;;;;;;;12866933;23;20004;-87
2023/08/26 14:25:58;;;;;;;4.95;1.50;;;;;;;;;;12872220;23;20358;-87
2023/08/26 14:31:00;;;;;;;1.40;1.00;;;;;;;;;;12876903;23;20001;-87
2023/08/26 14:36:02;;;;;;;2.03;1.40;;;;;;;;;;12880622;23;20336;-87
2023/08/26 14:41:04;;;;;;;3.75;1.20;;;;;;;;;;12873016;23;20005;-87
2023/08/26 14:46:05;;;;;;;4.63;1.00;;;;;;;;;;12881320;23;20165;-86
2023/08/26 14:51:06;;;;;;;3.10;1.20;;;;;;;;;;12864714;23;20011;-86
2023/08/26 14:56:07;;;;;;;2.35;1.00;;;;;;;;;;12865673;23;20092;-86
2023/08/26 15:01:08;;;;;;;1.77;1.00;;;;;;;;;;12866709;23;20009;-88
2023/08/26 15:06:09;;;;;;;3.53;1.42;;;;;;;;;;12866008;23;20091;-87
2023/08/26 15:11:10;;;;;;;2.20;1.38;;;;;;;;;;12866061;23;20027;-87
2023/08/26 15:16:13;;;;;;;4.50;1.40;;;;;;;;;;12867735;23;20035;-85
2023/08/26 15:21:14;;;;;;;2.78;0.90;;;;;;;;;;12865637;23;20009;-85
2023/08/26 15:26:18;;;;;;;2.58;0.88;;;;;;;;;;12866581;23;20004;-84
2023/08/26 15:31:19;;;;;;;1.40;0.80;;;;;;;;;;12870399;23;20007;-85
2023/08/26 15:36:20;;;;;;;1.52;0.88;;;;;;;;;;12871895;23;20047;-84
2023/08/26 15:41:21;;;;;;;2.53;1.13;;;;;;;;;;12868663;23;20000;-85
2023/08/26 15:46:22;;;;;;;1.98;1.00;;;;;;;;;;12866565;23;20012;-86
2023/08/26 15:51:23;;;;;;;4.00;3.30;;;;;;;;;;12865829;23;20000;-85
2023/08/26 15:56:24;;;;;;;4.97;3.70;;;;;;;;;;12864239;23;20051;-87
2023/08/26 16:01:28;;;;;;;3.10;1.17;;;;;;;;;;12865479;23;20332;-87
2023/08/26 16:06:29;;;;;;;2.45;1.40;;;;;;;;;;12869149;23;20004;-87
2023/08/26 16:11:30;;;;;;;1.67;0.85;;;;;;;;;;12886588;23;20060;-88
2023/08/26 16:16:31;;;;;;;2.42;1.08;;;;;;;;;;12884402;23;20012;-86
2023/08/26 16:21:33;;;;;;;1.67;1.00;;;;;;;;;;12862600;23;20009;-86
2023/08/26 16:26:34;;;;;;;1.70;0.90;;;;;;;;;;12863296;23;20036;-86
2023/08/26 16:31:35;;;;;;;1.52;0.90;;;;;;;;;;12869180;23;20384;-86
2023/08/26 16:36:36;;;;;;;2.50;1.33;;;;;;;;;;12861611;23;20103;-86
2023/08/26 16:41:37;;;;;;;2.95;1.20;;;;;;;;;;12862351;23;20444;-86
2023/08/26 16:46:38;;;;;;;1.77;1.10;;;;;;;;;;12863245;23;20063;-86
2023/08/26 16:51:39;;;;;;;5.03;1.45;;;;;;;;;;12862496;23;20012;-86
2023/08/26 16:56:40;;;;;;;1.75;1.20;;;;;;;;;;12863588;23;20005;-86
2023/08/26 17:01:41;;;;;;;2.50;1.25;;;;;;;;;;12864667;23;20497;-87
2023/08/26 17:06:43;;;;;;;1.80;1.20;;;;;;;;;;12862927;23;20035;-87
2023/08/26 17:11:44;;;;;;;1.40;1.20;;;;;;;;;;12862427;23;20341;-86
2023/08/26 17:16:45;;;;;;;2.97;2.30;;;;;;;;;;12866462;23;20373;-87
2023/08/26 17:21:46;;;;;;;1.92;1.25;;;;;;;;;;12866992;23;20314;-86
2023/08/26 17:26:47;;;;;;;1.33;1.05;;;;;;;;;;12861675;23;20064;-86
2023/08/26 17:31:48;;;;;;;3.67;1.52;;;;;;;;;;12862018;23;20000;-86
2023/08/26 17:36:49;;;;;;;3.63;1.50;;;;;;;;;;12862330;23;20012;-86
2023/08/26 17:41:50;;;;;;;1.88;1.13;;;;;;;;;;12862990;23;20016;-86
2023/08/26 17:46:51;;;;;;;2.85;1.70;;;;;;;;;;12862152;23;20008;-86
2023/08/26 17:51:52;;;;;;;2.67;1.42;;;;;;;;;;12868124;23;20067;-86
2023/08/26 17:56:53;;;;;;;4.00;2.17;;;;;;;;;;12864396;23;20004;-85
2023/08/26 18:01:54;;;;;;;4.00;1.85;;;;;;;;;;12866158;23;20016;-85
2023/08/26 18:06:56;;;;;;;5.80;2.17;;;;;;;;;;12869386;23;20031;-84
2023/08/26 18:11:58;;;;;;;4.35;2.30;;;;;;;;;;12868622;23;20088;-85
2023/08/26 18:16:59;;;;;;;5.80;2.53;;;;;;;;;;12869297;22;20032;-83
2023/08/26 18:22:00;;;;;;;4.65;2.15;;;;;;;;;;12878474;23;20011;-84
2023/08/26 18:27:01;;;;;;;4.63;2.30;;;;;;;;;;12877771;23;20024;-84
2023/08/26 18:32:03;;;;;;;7.13;2.75;;;;;;;;;;12885199;23;20001;-84
2023/08/26 18:37:04;;;;;;;4.70;2.38;;;;;;;;;;12855237;23;20035;-84
2023/08/26 18:48:01;;;;;;;5.95;2.35;;;;;;;;;;12879323;23;20016;-83
2023/08/26 18:53:08;;;;;;;5.97;2.47;;;;;;;;;;12877046;23;20004;-84
2023/08/26 18:58:09;;;;;;;5.20;2.50;;;;;;;;;;12878489;23;20001;-83
2023/08/26 19:03:10;;;;;;;9.80;6.32;;;;;;;;;;12881118;23;20000;-83
2023/08/26 19:08:12;;;;;;;20.30;12.95;;;;;;;;;;12880123;23;20005;-83
2023/08/26 19:13:13;;;;;;;22.15;16.10;;;;;;;;;;12856379;23;20000;-84
